Time;durP1;ratioP1;P1;durP2;ratioP2;P2;SDS_P1;SDS_P2;PMS_P1;PMS_P2;Temp;Humidity;BMP_temperature;BMP_pressure;BME280_temperature;BME280_humidity;BME280_pressure;Samples;Min_cycle;Max_cycle;Signal;HPM_P1;HPM_P2
2022/05/01 00:01:12;;;;;;;10.80;7.70;;;;;;;;;;5019722;28;20045;-74
2022/05/01 00:03:39;;;;;;;10.88;7.20;;;;;;;;;;5030090;28;20632;-73
2022/05/01 00:06:09;;;;;;;10.55;7.65;;;;;;;;;;5026935;28;20045;-73
2022/05/01 00:08:36;;;;;;;12.20;8.55;;;;;;;;;;5029248;28;20114;-73
2022/05/01 00:11:03;;;;;;;10.00;7.20;;;;;;;;;;5020349;28;20485;-73
2022/05/01 00:13:29;;;;;;;10.00;7.00;;;;;;;;;;5022173;28;20045;-73
2022/05/01 00:15:56;;;;;;;11.45;8.30;;;;;;;;;;5017052;28;20049;-73
2022/05/01 00:18:22;;;;;;;10.10;7.72;;;;;;;;;;5021963;28;20049;-73
2022/05/01 00:20:48;;;;;;;9.55;7.18;;;;;;;;;;5023592;28;20045;-73
2022/05/01 00:23:15;;;;;;;12.30;8.07;;;;;;;;;;5007669;28;20487;-73
2022/05/01 00:25:42;;;;;;;11.27;7.22;;;;;;;;;;5044929;28;20060;-73
2022/05/01 00:28:14;;;;;;;10.88;7.55;;;;;;;;;;5027520;28;20121;-73
2022/05/01 00:30:41;;;;;;;11.35;8.63;;;;;;;;;;5030767;28;20045;-72
2022/05/01 00:38:38;;;;;;;12.90;8.43;;;;;;;;;;5020760;28;20493;-73
2022/05/01 00:41:07;;;;;;;11.60;7.72;;;;;;;;;;5021003;28;20149;-73
2022/05/01 00:43:33;;;;;;;11.45;8.52;;;;;;;;;;5033445;28;20029;-73
2022/05/01 00:45:59;;;;;;;11.40;8.13;;;;;;;;;;5031518;28;20144;-73
2022/05/01 00:48:25;;;;;;;10.60;8.25;;;;;;;;;;5027154;28;20065;-73
2022/05/01 00:50:52;;;;;;;15.32;9.07;;;;;;;;;;5023648;28;20334;-73
2022/05/01 00:53:18;;;;;;;17.05;8.85;;;;;;;;;;5025880;28;20057;-73
2022/05/01 00:55:45;;;;;;;10.32;8.38;;;;;;;;;;5051627;28;20485;-73
2022/05/01 00:58:11;;;;;;;12.65;9.23;;;;;;;;;;5025960;28;20045;-73
2022/05/01 01:00:37;;;;;;;12.43;9.23;;;;;;;;;;5027301;28;20068;-73
2022/05/01 01:03:03;;;;;;;12.30;10.27;;;;;;;;;;5031190;28;20381;-73
2022/05/01 01:05:29;;;;;;;11.73;9.48;;;;;;;;;;5047446;28;20477;-73
2022/05/01 01:08:00;;;;;;;14.45;10.35;;;;;;;;;;5025086;28;20033;-72
2022/05/01 01:10:27;;;;;;;13.55;10.48;;;;;;;;;;5020879;28;20132;-73
2022/05/01 01:12:56;;;;;;;16.63;10.35;;;;;;;;;;5032334;28;20399;-73
2022/05/01 01:15:29;;;;;;;15.77;10.35;;;;;;;;;;5021106;28;20135;-73
2022/05/01 01:17:55;;;;;;;12.70;10.27;;;;;;;;;;5030329;28;20045;-73
2022/05/01 01:20:22;;;;;;;16.88;10.57;;;;;;;;;;5032794;28;20492;-73
2022/05/01 01:22:49;;;;;;;15.15;10.35;;;;;;;;;;5044488;28;20036;-73
2022/05/01 01:25:21;;;;;;;16.13;9.90;;;;;;;;;;5027502;28;20084;-73
2022/05/01 01:27:47;;;;;;;14.73;9.65;;;;;;;;;;5029053;28;20049;-73
2022/05/01 01:32:59;;;;;;;13.50;9.43;;;;;;;;;;5026348;28;20049;-73
2022/05/01 01:35:26;;;;;;;13.68;9.45;;;;;;;;;;5027410;28;20072;-73
2022/05/01 01:37:53;;;;;;;12.18;9.27;;;;;;;;;;5022356;28;20801;-73
2022/05/01 01:40:29;;;;;;;11.10;9.73;;;;;;;;;;5030372;28;20099;-73
2022/05/01 01:42:57;;;;;;;11.57;9.23;;;;;;;;;;5031081;28;20037;-73
2022/05/01 01:45:24;;;;;;;12.75;9.18;;;;;;;;;;5029670;28;20119;-73
2022/05/01 01:47:51;;;;;;;11.50;9.07;;;;;;;;;;5032899;28;20108;-73
2022/05/01 01:50:20;;;;;;;14.15;10.20;;;;;;;;;;5031123;28;20431;-73
2022/05/01 01:52:46;;;;;;;13.75;9.85;;;;;;;;;;5030023;28;20559;-73
2022/05/01 01:55:16;;;;;;;13.85;10.13;;;;;;;;;;5019056;28;20037;-73
2022/05/01 01:57:43;;;;;;;14.48;9.85;;;;;;;;;;5029878;28;20037;-73
2022/05/01 02:00:09;;;;;;;13.55;9.65;;;;;;;;;;5024789;28;20049;-73
2022/05/01 02:02:35;;;;;;;11.57;9.07;;;;;;;;;;5025141;28;20033;-73
2022/05/01 02:05:01;;;;;;;14.40;9.02;;;;;;;;;;5022665;28;20033;-73
2022/05/01 02:07:30;;;;;;;12.77;9.77;;;;;;;;;;5023838;28;20037;-73
2022/05/01 02:09:57;;;;;;;11.65;9.40;;;;;;;;;;5019309;28;20505;-73
2022/05/01 02:12:23;;;;;;;12.57;9.68;;;;;;;;;;5027297;28;20545;-73
2022/05/01 02:14:49;;;;;;;13.70;10.65;;;;;;;;;;5022093;28;20060;-74
2022/05/01 02:17:15;;;;;;;12.57;9.82;;;;;;;;;;5024854;28;20501;-73
2022/05/01 02:19:41;;;;;;;13.45;10.00;;;;;;;;;;5029966;28;20506;-73
2022/05/01 02:22:08;;;;;;;14.60;10.48;;;;;;;;;;5024540;28;20043;-73
2022/05/01 02:24:34;;;;;;;11.65;9.55;;;;;;;;;;5015773;28;20050;-73
2022/05/01 02:27:01;;;;;;;12.63;10.50;;;;;;;;;;5020721;28;20118;-74
2022/05/01 02:29:27;;;;;;;14.52;9.70;;;;;;;;;;5027641;28;20369;-73
2022/05/01 02:31:53;;;;;;;15.75;11.20;;;;;;;;;;5018083;28;20046;-73
2022/05/01 02:34:20;;;;;;;13.95;9.75;;;;;;;;;;5016916;28;20037;-74
2022/05/01 02:36:47;;;;;;;16.05;11.07;;;;;;;;;;5019447;28;20025;-73
2022/05/01 02:39:13;;;;;;;14.63;10.50;;;;;;;;;;5017630;28;20086;-74
2022/05/01 02:41:39;;;;;;;13.90;10.85;;;;;;;;;;5015099;28;20072;-74
2022/05/01 02:44:06;;;;;;;15.75;11.48;;;;;;;;;;5021961;28;20044;-73
2022/05/01 02:46:32;;;;;;;15.63;10.13;;;;;;;;;;5020704;28;20052;-73
2022/05/01 02:48:59;;;;;;;12.70;10.27;;;;;;;;;;5026138;28;20473;-73
2022/05/01 02:51:25;;;;;;;15.52;10.93;;;;;;;;;;5021748;28;20041;-73
2022/05/01 02:53:51;;;;;;;18.27;11.20;;;;;;;;;;5018720;28;20037;-73
2022/05/01 02:56:17;;;;;;;16.20;10.88;;;;;;;;;;5013623;28;20405;-73
2022/05/01 02:58:43;;;;;;;16.13;10.73;;;;;;;;;;5022849;28;20092;-73
2022/05/01 03:01:09;;;;;;;15.40;11.23;;;;;;;;;;5018323;28;20053;-73
2022/05/01 03:03:36;;;;;;;17.08;11.48;;;;;;;;;;5022623;28;20756;-73
2022/05/01 03:06:02;;;;;;;17.58;11.77;;;;;;;;;;5020675;28;20044;-73
2022/05/01 03:08:28;;;;;;;15.52;11.88;;;;;;;;;;5006539;28;20684;-73
2022/05/01 03:10:54;;;;;;;16.67;11.63;;;;;;;;;;5018063;28;20503;-73
2022/05/01 03:13:20;;;;;;;15.38;11.63;;;;;;;;;;5018115;28;20052;-73
2022/05/01 03:15:46;;;;;;;16.38;11.10;;;;;;;;;;5018617;28;20045;-72
2022/05/01 03:23:42;;;;;;;13.43;10.20;;;;;;;;;;5017236;28;20084;-73
2022/05/01 03:26:08;;;;;;;16.75;11.43;;;;;;;;;;5006133;28;20449;-72
2022/05/01 03:28:34;;;;;;;15.98;11.63;;;;;;;;;;5018934;28;20042;-72
2022/05/01 03:31:00;;;;;;;14.50;10.85;;;;;;;;;;5022674;28;20045;-72
2022/05/01 03:33:26;;;;;;;15.57;11.32;;;;;;;;;;5022807;28;20044;-72
2022/05/01 03:35:53;;;;;;;13.32;11.10;;;;;;;;;;5016423;28;20037;-73
2022/05/01 03:38:20;;;;;;;15.55;11.75;;;;;;;;;;5018342;28;20485;-73
2022/05/01 03:40:50;;;;;;;14.20;11.48;;;;;;;;;;5019848;28;20044;-72
2022/05/01 03:43:16;;;;;;;14.93;12.15;;;;;;;;;;5018281;28;20080;-73
2022/05/01 03:45:42;;;;;;;17.00;12.13;;;;;;;;;;5020746;28;20036;-73
2022/05/01 03:48:09;;;;;;;16.38;11.38;;;;;;;;;;5025039;28;20171;-73
2022/05/01 03:50:35;;;;;;;16.30;11.48;;;;;;;;;;5020891;28;20121;-72
2022/05/01 03:53:04;;;;;;;20.15;12.35;;;;;;;;;;5016662;28;20045;-73
2022/05/01 03:55:31;;;;;;;14.20;11.65;;;;;;;;;;5025800;28;20409;-73
2022/05/01 03:57:58;;;;;;;16.13;12.63;;;;;;;;;;5019926;28;20152;-73
2022/05/01 04:00:24;;;;;;;15.05;11.18;;;;;;;;;;5041558;28;20049;-72
2022/05/01 04:02:52;;;;;;;15.57;11.75;;;;;;;;;;5023031;28;20033;-73
2022/05/01 04:05:18;;;;;;;15.90;12.02;;;;;;;;;;5029852;28;20163;-72
2022/05/01 04:07:44;;;;;;;16.77;11.77;;;;;;;;;;5029565;28;20103;-73
2022/05/01 04:10:11;;;;;;;16.77;12.43;;;;;;;;;;5036310;28;20480;-73
2022/05/01 04:12:42;;;;;;;20.48;12.98;;;;;;;;;;5027239;28;20049;-73
2022/05/01 04:15:08;;;;;;;16.50;12.20;;;;;;;;;;5019129;28;20103;-73
2022/05/01 04:17:41;;;;;;;19.63;12.93;;;;;;;;;;5007196;28;20055;-72
2022/05/01 04:20:08;;;;;;;21.63;14.07;;;;;;;;;;5021199;28;20049;-73
2022/05/01 04:22:44;;;;;;;20.23;13.93;;;;;;;;;;5021404;28;20092;-73
2022/05/01 04:25:24;;;;;;;20.45;14.23;;;;;;;;;;5020257;28;20045;-72
2022/05/01 04:27:54;;;;;;;16.50;12.75;;;;;;;;;;5019564;28;20052;-72
2022/05/01 04:30:22;;;;;;;18.33;13.32;;;;;;;;;;5019961;28;20071;-73
2022/05/01 04:32:49;;;;;;;20.52;13.77;;;;;;;;;;5016137;28;20071;-73
2022/05/01 04:35:19;;;;;;;16.88;13.07;;;;;;;;;;5023829;28;20048;-73
2022/05/01 04:37:46;;;;;;;17.13;13.90;;;;;;;;;;5024846;28;20033;-73
2022/05/01 04:40:14;;;;;;;21.42;14.85;;;;;;;;;;5028476;28;20037;-73
2022/05/01 04:42:41;;;;;;;18.05;13.88;;;;;;;;;;5018694;28;20045;-73
2022/05/01 04:45:07;;;;;;;19.92;14.13;;;;;;;;;;5024879;28;20108;-73
2022/05/01 04:47:33;;;;;;;17.45;12.93;;;;;;;;;;5006749;28;20128;-73
2022/05/01 04:49:59;;;;;;;20.20;13.77;;;;;;;;;;5045146;28;20048;-73
2022/05/01 04:52:25;;;;;;;18.35;14.35;;;;;;;;;;5029130;28;20063;-72
2022/05/01 04:54:51;;;;;;;17.70;13.43;;;;;;;;;;5020005;28;20069;-73
2022/05/01 04:57:18;;;;;;;19.67;12.88;;;;;;;;;;5009201;28;20441;-73
2022/05/01 04:59:44;;;;;;;20.20;13.38;;;;;;;;;;5026264;28;20065;-73
2022/05/01 05:02:10;;;;;;;16.00;13.10;;;;;;;;;;5020976;28;20116;-73
2022/05/01 05:04:36;;;;;;;20.40;12.48;;;;;;;;;;5020740;28;20033;-73
2022/05/01 05:07:02;;;;;;;18.50;12.73;;;;;;;;;;5025075;28;20037;-73
2022/05/01 05:12:13;;;;;;;15.13;12.27;;;;;;;;;;5023743;28;20446;-72
2022/05/01 05:14:39;;;;;;;19.20;13.20;;;;;;;;;;5028826;28;20499;-73
2022/05/01 05:17:09;;;;;;;18.33;14.20;;;;;;;;;;5025770;28;20386;-73
2022/05/01 05:19:36;;;;;;;17.45;14.40;;;;;;;;;;5022408;28;20045;-73
2022/05/01 05:22:02;;;;;;;16.73;13.68;;;;;;;;;;5016356;28;20144;-73
2022/05/01 05:24:30;;;;;;;17.25;13.88;;;;;;;;;;4991279;28;20100;-73
2022/05/01 05:26:56;;;;;;;17.88;13.75;;;;;;;;;;5023335;28;20439;-73
2022/05/01 05:29:22;;;;;;;19.17;13.93;;;;;;;;;;5023983;28;20075;-73
2022/05/01 05:31:48;;;;;;;15.52;12.70;;;;;;;;;;5023531;28;20044;-72
2022/05/01 05:34:14;;;;;;;21.50;14.82;;;;;;;;;;5010631;28;20374;-73
2022/05/01 05:36:40;;;;;;;23.13;14.50;;;;;;;;;;5021245;28;20428;-72
2022/05/01 05:39:06;;;;;;;23.77;17.15;;;;;;;;;;5021633;28;20049;-73
2022/05/01 05:41:33;;;;;;;21.52;16.30;;;;;;;;;;5008392;28;20037;-73
2022/05/01 05:43:59;;;;;;;26.48;14.70;;;;;;;;;;5019353;28;20041;-73
2022/05/01 05:46:25;;;;;;;18.05;15.07;;;;;;;;;;5037635;28;20037;-73
2022/05/01 05:48:51;;;;;;;17.38;13.98;;;;;;;;;;5031319;28;20048;-73
2022/05/01 05:51:17;;;;;;;17.27;13.88;;;;;;;;;;5020712;28;20045;-73
2022/05/01 05:53:43;;;;;;;21.00;14.73;;;;;;;;;;5023990;28;20053;-73
2022/05/01 05:56:09;;;;;;;21.63;14.75;;;;;;;;;;5023816;28;20049;-73
2022/05/01 05:58:35;;;;;;;16.55;13.65;;;;;;;;;;5042666;28;20412;-73
2022/05/01 06:01:01;;;;;;;20.50;15.35;;;;;;;;;;5021788;28;20044;-73
2022/05/01 06:03:27;;;;;;;17.77;14.60;;;;;;;;;;5023013;28;20051;-73
2022/05/01 06:05:53;;;;;;;20.52;13.90;;;;;;;;;;5033555;28;20052;-73
2022/05/01 06:08:19;;;;;;;22.08;14.50;;;;;;;;;;5021829;28;20503;-73
2022/05/01 06:10:45;;;;;;;24.70;15.45;;;;;;;;;;5022849;28;20618;-73
2022/05/01 06:13:11;;;;;;;17.70;14.15;;;;;;;;;;5027165;28;20088;-73
2022/05/01 06:15:38;;;;;;;21.42;13.63;;;;;;;;;;5037897;28;20044;-73
2022/05/01 06:18:04;;;;;;;19.77;14.60;;;;;;;;;;5028879;28;20104;-73
2022/05/01 06:20:30;;;;;;;21.65;15.30;;;;;;;;;;5022197;28;20432;-73
2022/05/01 06:22:56;;;;;;;20.13;14.32;;;;;;;;;;5021760;28;20072;-73
2022/05/01 06:25:23;;;;;;;18.25;13.68;;;;;;;;;;5016335;28;20049;-73
2022/05/01 06:27:49;;;;;;;19.88;14.80;;;;;;;;;;5025847;28;20084;-73
2022/05/01 06:30:15;;;;;;;22.65;14.85;;;;;;;;;;5007101;28;20393;-73
2022/05/01 06:32:42;;;;;;;19.75;15.38;;;;;;;;;;5018080;28;20140;-73
2022/05/01 06:35:08;;;;;;;23.52;16.95;;;;;;;;;;5006705;28;20075;-71
2022/05/01 06:37:35;;;;;;;19.42;15.15;;;;;;;;;;5027538;28;20370;-73
2022/05/01 06:40:03;;;;;;;20.65;14.95;;;;;;;;;;5022670;28;20520;-73
2022/05/01 06:42:30;;;;;;;18.83;14.13;;;;;;;;;;5022601;28;20568;-73
2022/05/01 06:44:56;;;;;;;21.67;16.02;;;;;;;;;;5024184;28;20033;-74
2022/05/01 06:47:22;;;;;;;19.23;15.00;;;;;;;;;;5015915;28;20115;-73
2022/05/01 06:49:48;;;;;;;21.17;14.88;;;;;;;;;;5021509;28;20053;-73
2022/05/01 06:52:14;;;;;;;20.40;14.00;;;;;;;;;;5025123;28;20049;-73
2022/05/01 06:54:40;;;;;;;21.13;16.17;;;;;;;;;;5008214;28;20044;-74
2022/05/01 06:57:06;;;;;;;18.35;14.75;;;;;;;;;;5018578;28;20048;-74
2022/05/01 06:59:32;;;;;;;19.85;14.48;;;;;;;;;;5026679;28;20428;-73
2022/05/01 07:01:58;;;;;;;23.80;15.93;;;;;;;;;;5021168;28;20521;-73
2022/05/01 07:04:24;;;;;;;19.77;15.32;;;;;;;;;;5021594;28;20508;-74
2022/05/01 07:06:50;;;;;;;19.00;15.23;;;;;;;;;;5024612;28;20032;-74
2022/05/01 07:09:16;;;;;;;17.70;14.52;;;;;;;;;;5019998;28;20106;-74
2022/05/01 07:11:42;;;;;;;20.90;13.75;;;;;;;;;;5000577;28;20052;-74
2022/05/01 07:14:08;;;;;;;19.38;13.90;;;;;;;;;;5022379;28;20064;-74
2022/05/01 07:16:34;;;;;;;18.67;14.40;;;;;;;;;;5017876;28;20051;-73
2022/05/01 07:19:00;;;;;;;19.98;14.40;;;;;;;;;;5017309;28;20103;-74
2022/05/01 07:21:26;;;;;;;15.82;12.50;;;;;;;;;;5016002;28;20041;-74
2022/05/01 07:23:52;;;;;;;17.90;13.60;;;;;;;;;;5020780;28;20041;-73
2022/05/01 07:26:19;;;;;;;14.75;13.02;;;;;;;;;;5019517;28;20753;-73
2022/05/01 07:28:46;;;;;;;16.02;12.82;;;;;;;;;;5019590;28;20069;-74
2022/05/01 07:31:12;;;;;;;15.20;12.20;;;;;;;;;;5010329;28;20044;-73
2022/05/01 07:33:38;;;;;;;16.25;11.95;;;;;;;;;;5018931;28;20038;-73
2022/05/01 07:36:04;;;;;;;13.38;11.23;;;;;;;;;;5020435;28;20049;-74
2022/05/01 07:38:30;;;;;;;14.35;10.98;;;;;;;;;;5026145;28;20044;-73
2022/05/01 07:40:57;;;;;;;14.52;11.43;;;;;;;;;;5016825;28;20575;-73
2022/05/01 07:43:23;;;;;;;15.07;11.75;;;;;;;;;;5015498;28;20059;-74
2022/05/01 07:45:49;;;;;;;15.15;12.13;;;;;;;;;;5014736;28;20404;-74
2022/05/01 07:48:15;;;;;;;14.95;12.50;;;;;;;;;;5023909;28;20033;-74
2022/05/01 07:50:41;;;;;;;15.20;12.55;;;;;;;;;;5018143;28;20072;-73
2022/05/01 07:53:07;;;;;;;14.43;11.63;;;;;;;;;;5022572;28;20060;-74
2022/05/01 07:55:34;;;;;;;18.10;11.70;;;;;;;;;;5006804;28;20049;-74
2022/05/01 07:58:00;;;;;;;13.85;11.82;;;;;;;;;;5024295;28;20052;-74
2022/05/01 08:00:26;;;;;;;15.30;12.40;;;;;;;;;;5024180;28;20049;-74
2022/05/01 08:05:36;;;;;;;15.20;10.50;;;;;;;;;;5019055;28;20045;-74
2022/05/01 08:08:02;;;;;;;12.45;10.18;;;;;;;;;;5019722;28;20037;-74
2022/05/01 08:10:29;;;;;;;14.63;11.02;;;;;;;;;;5027866;28;20437;-74
2022/05/01 08:12:58;;;;;;;11.93;10.63;;;;;;;;;;5017978;28;20041;-73
2022/05/01 08:15:24;;;;;;;13.10;10.38;;;;;;;;;;5022404;28;20044;-73
2022/05/01 08:17:50;;;;;;;16.38;11.20;;;;;;;;;;5018810;28;20800;-74
2022/05/01 08:23:07;;;;;;;7.55;5.88;;;;;;;;;;5016544;28;20131;-74
2022/05/01 08:25:34;;;;;;;8.68;5.30;;;;;;;;;;5017538;28;20088;-74
2022/05/01 08:28:00;;;;;;;11.07;7.05;;;;;;;;;;5020023;28;20131;-74
2022/05/01 08:30:27;;;;;;;9.70;6.55;;;;;;;;;;5020752;28;20042;-74
2022/05/01 08:32:53;;;;;;;6.85;5.60;;;;;;;;;;5028407;28;20079;-74
2022/05/01 08:35:19;;;;;;;9.50;5.78;;;;;;;;;;5015988;28;20048;-74
2022/05/01 08:37:45;;;;;;;8.70;6.43;;;;;;;;;;5023291;28;20037;-74
2022/05/01 08:40:12;;;;;;;9.90;5.75;;;;;;;;;;5015894;28;20056;-73
2022/05/01 08:42:39;;;;;;;8.07;5.50;;;;;;;;;;5027629;28;20522;-74
2022/05/01 08:45:09;;;;;;;7.70;4.88;;;;;;;;;;5017282;28;20706;-74
2022/05/01 08:47:41;;;;;;;10.23;6.63;;;;;;;;;;5025062;28;20068;-74
2022/05/01 08:50:09;;;;;;;8.90;6.60;;;;;;;;;;5023445;28;20477;-74
2022/05/01 08:52:38;;;;;;;9.60;7.15;;;;;;;;;;5023492;28;20053;-74
2022/05/01 08:55:05;;;;;;;10.95;7.82;;;;;;;;;;5020821;28;20045;-75
2022/05/01 08:57:33;;;;;;;11.23;7.78;;;;;;;;;;5023195;28;20440;-74
2022/05/01 08:59:59;;;;;;;13.98;8.43;;;;;;;;;;5027009;28;20114;-75
2022/05/01 09:02:25;;;;;;;10.57;8.23;;;;;;;;;;5022223;28;20043;-75
2022/05/01 09:04:51;;;;;;;12.20;8.52;;;;;;;;;;5027709;28;20477;-74
2022/05/01 09:07:18;;;;;;;11.95;9.00;;;;;;;;;;5023665;28;20402;-74
2022/05/01 09:09:44;;;;;;;12.88;9.48;;;;;;;;;;5026787;28;20489;-74
2022/05/01 09:14:55;;;;;;;12.65;9.20;;;;;;;;;;5024524;28;20520;-74
2022/05/01 09:17:23;;;;;;;12.75;8.98;;;;;;;;;;5019436;28;20071;-74
2022/05/01 09:19:56;;;;;;;12.10;8.60;;;;;;;;;;5020387;28;20044;-74
2022/05/01 09:22:22;;;;;;;9.68;8.45;;;;;;;;;;5039853;28;20098;-74
2022/05/01 09:24:53;;;;;;;11.40;8.77;;;;;;;;;;5023233;28;21770;-75
2022/05/01 09:27:32;;;;;;;11.63;9.10;;;;;;;;;;5026414;28;20060;-74
2022/05/01 09:30:22;;;;;;;14.00;9.80;;;;;;;;;;5022368;28;20091;-74
2022/05/01 09:32:49;;;;;;;13.48;9.43;;;;;;;;;;5028197;28;20477;-75
2022/05/01 09:35:37;;;;;;;10.32;8.68;;;;;;;;;;5024090;28;20440;-74
2022/05/01 09:38:09;;;;;;;9.90;8.27;;;;;;;;;;5021852;28;20140;-74
2022/05/01 09:40:35;;;;;;;10.02;7.40;;;;;;;;;;5020203;28;20050;-73
2022/05/01 09:43:01;;;;;;;14.63;8.15;;;;;;;;;;5016658;28;20491;-74
2022/05/01 09:45:31;;;;;;;10.68;7.72;;;;;;;;;;5020585;28;20490;-74
2022/05/01 09:47:58;;;;;;;9.93;7.78;;;;;;;;;;5007005;28;20044;-74
2022/05/01 09:50:40;;;;;;;10.57;7.43;;;;;;;;;;5016258;28;20049;-74
2022/05/01 09:53:07;;;;;;;8.07;6.30;;;;;;;;;;5015144;28;20041;-74
2022/05/01 09:55:33;;;;;;;8.80;6.28;;;;;;;;;;5025569;28;20552;-74
2022/05/01 09:58:12;;;;;;;11.68;6.20;;;;;;;;;;5019488;28;20044;-74
2022/05/01 10:00:42;;;;;;;9.20;6.70;;;;;;;;;;5016344;28;20040;-73
2022/05/01 10:03:28;;;;;;;10.93;6.60;;;;;;;;;;5019506;28;20071;-74
2022/05/01 10:05:55;;;;;;;8.23;6.75;;;;;;;;;;5017773;28;20073;-74
2022/05/01 10:08:21;;;;;;;9.57;6.90;;;;;;;;;;5021185;28;20036;-74
2022/05/01 10:10:48;;;;;;;10.07;6.80;;;;;;;;;;5015363;28;20046;-74
2022/05/01 10:13:14;;;;;;;8.73;6.80;;;;;;;;;;5009254;28;20075;-74
2022/05/01 10:15:41;;;;;;;9.27;6.47;;;;;;;;;;5040108;28;20102;-74
2022/05/01 10:18:08;;;;;;;9.00;6.97;;;;;;;;;;5022717;28;20072;-74
2022/05/01 10:20:37;;;;;;;7.78;6.43;;;;;;;;;;5017712;28;20058;-74
2022/05/01 10:23:03;;;;;;;8.57;6.50;;;;;;;;;;5021301;28;20045;-74
2022/05/01 10:25:34;;;;;;;8.93;6.22;;;;;;;;;;5020435;28;20045;-74
2022/05/01 10:28:13;;;;;;;10.32;6.22;;;;;;;;;;5026216;28;20048;-75
2022/05/01 10:33:47;;;;;;;6.68;4.97;;;;;;;;;;5024295;28;20048;-74
2022/05/01 10:36:40;;;;;;;9.68;5.20;;;;;;;;;;5024664;28;20102;-75
2022/05/01 10:39:17;;;;;;;7.18;4.63;;;;;;;;;;5021843;28;20118;-75
2022/05/01 10:41:47;;;;;;;7.25;4.63;;;;;;;;;;5024718;28;20045;-74
2022/05/01 10:44:28;;;;;;;7.40;4.93;;;;;;;;;;5021653;28;20497;-74
2022/05/01 10:46:54;;;;;;;6.50;4.47;;;;;;;;;;5024705;28;20044;-74
2022/05/01 10:49:39;;;;;;;6.28;4.75;;;;;;;;;;5017553;28;20129;-74
2022/05/01 10:52:22;;;;;;;7.88;4.75;;;;;;;;;;5018369;28;20064;-75
2022/05/01 10:54:52;;;;;;;5.50;4.50;;;;;;;;;;5022485;28;20052;-74
2022/05/01 10:57:18;;;;;;;6.03;4.57;;;;;;;;;;5014685;28;20500;-75
2022/05/01 10:59:48;;;;;;;6.65;4.70;;;;;;;;;;5019740;28;20102;-74
2022/05/01 11:02:22;;;;;;;6.95;4.60;;;;;;;;;;5003072;28;20132;-74
2022/05/01 11:04:49;;;;;;;6.50;4.40;;;;;;;;;;5020809;28;20048;-75
2022/05/01 11:07:17;;;;;;;6.63;4.30;;;;;;;;;;5019722;28;20052;-74
2022/05/01 11:09:50;;;;;;;6.50;4.53;;;;;;;;;;5006711;28;20087;-74
2022/05/01 11:12:17;;;;;;;6.90;3.10;;;;;;;;;;5015684;28;20038;-74
2022/05/01 11:15:02;;;;;;;3.03;2.70;;;;;;;;;;5014766;28;20058;-74
2022/05/01 11:17:42;;;;;;;5.03;3.58;;;;;;;;;;5015114;28;20077;-74
2022/05/01 11:20:09;;;;;;;6.20;3.85;;;;;;;;;;5023857;28;20049;-74
2022/05/01 11:22:35;;;;;;;8.00;4.60;;;;;;;;;;5023262;28;20040;-74
2022/05/01 11:25:02;;;;;;;5.88;4.57;;;;;;;;;;5017454;28;20055;-74
2022/05/01 11:27:46;;;;;;;6.95;4.68;;;;;;;;;;5037201;28;20071;-74
2022/05/01 11:30:13;;;;;;;7.28;4.57;;;;;;;;;;5018883;28;20088;-74
2022/05/01 11:32:46;;;;;;;6.95;4.85;;;;;;;;;;5019590;28;20088;-74
2022/05/01 11:35:12;;;;;;;6.72;4.10;;;;;;;;;;5022604;28;20119;-74
2022/05/01 11:37:48;;;;;;;7.82;4.07;;;;;;;;;;5034506;28;20063;-74
2022/05/01 11:40:14;;;;;;;;;;;;;;;;;;5020526;28;20058;-74
2022/05/01 11:42:41;;;;;;;7.78;4.53;;;;;;;;;;5020924;28;19987;-74
2022/05/01 11:45:10;;;;;;;5.40;3.85;;;;;;;;;;5020051;28;20080;-74
2022/05/01 11:47:37;;;;;;;6.10;3.75;;;;;;;;;;5029007;28;20044;-74
2022/05/01 11:50:05;;;;;;;5.63;4.10;;;;;;;;;;5015933;28;20060;-74
2022/05/01 11:52:36;;;;;;;4.95;3.70;;;;;;;;;;5028290;28;20067;-74
2022/05/01 11:55:06;;;;;;;5.93;4.13;;;;;;;;;;5014911;28;20080;-74
2022/05/01 12:03:07;;;;;;;5.38;3.63;;;;;;;;;;5014311;28;20079;-74
2022/05/01 12:05:43;;;;;;;6.80;3.88;;;;;;;;;;5021007;28;20053;-75
2022/05/01 12:08:10;;;;;;;5.78;3.97;;;;;;;;;;5003445;28;20064;-74
2022/05/01 12:10:40;;;;;;;5.45;4.25;;;;;;;;;;4997613;28;20077;-74
2022/05/01 12:13:16;;;;;;;6.15;3.90;;;;;;;;;;5003601;28;20073;-74
2022/05/01 12:15:43;;;;;;;;;;;;;;;;;;5017125;28;20130;-73
2022/05/01 12:18:09;;;;;;;;;;;;;;;;;;5016806;28;19919;-73
2022/05/01 12:20:35;;;;;;;8.65;4.43;;;;;;;;;;5015496;28;20011;-74
2022/05/01 12:23:01;;;;;;;7.05;4.15;;;;;;;;;;5026374;28;20045;-74
2022/05/01 12:25:27;;;;;;;5.38;3.85;;;;;;;;;;5020124;28;20053;-74
2022/05/01 12:27:53;;;;;;;6.50;4.15;;;;;;;;;;5019727;28;20136;-74
2022/05/01 12:30:26;;;;;;;5.40;3.97;;;;;;;;;;5047259;28;20033;-74
2022/05/01 12:32:53;;;;;;;7.25;4.75;;;;;;;;;;5012802;28;20076;-74
2022/05/01 12:35:20;;;;;;;5.78;4.78;;;;;;;;;;5012049;28;20049;-74
2022/05/01 12:37:48;;;;;;;6.45;4.63;;;;;;;;;;5017872;28;20076;-74
2022/05/01 12:43:50;;;;;;;6.30;4.57;;;;;;;;;;5028578;28;20117;-74
2022/05/01 12:45:46;;;;;;;6.05;4.32;;;;;;;;;;5023317;28;20052;-74
2022/05/01 12:48:13;;;;;;;4.97;3.75;;;;;;;;;;5023020;28;20052;-74
2022/05/01 12:50:40;;;;;;;5.80;3.92;;;;;;;;;;5020714;28;20374;-74
2022/05/01 12:53:27;;;;;;;8.48;4.18;;;;;;;;;;5021640;28;20045;-74
2022/05/01 12:55:53;;;;;;;4.25;3.28;;;;;;;;;;5019197;28;20449;-74
2022/05/01 12:58:27;;;;;;;5.43;3.70;;;;;;;;;;5026070;28;20040;-74
2022/05/01 13:00:53;;;;;;;4.45;3.33;;;;;;;;;;5018183;28;20195;-74
2022/05/01 13:03:24;;;;;;;4.63;3.40;;;;;;;;;;5021148;28;20049;-74
2022/05/01 13:06:02;;;;;;;8.95;3.67;;;;;;;;;;5021412;28;20045;-74
2022/05/01 13:08:32;;;;;;;4.75;3.50;;;;;;;;;;5027330;28;20132;-73
2022/05/01 13:11:17;;;;;;;3.50;3.20;;;;;;;;;;5022631;28;20516;-74
2022/05/01 13:13:50;;;;;;;4.97;3.78;;;;;;;;;;5020429;28;20053;-74
2022/05/01 13:16:16;;;;;;;5.50;3.28;;;;;;;;;;5021006;28;20180;-74
2022/05/01 13:18:43;;;;;;;7.82;3.70;;;;;;;;;;5016870;28;20095;-74
2022/05/01 13:21:09;;;;;;;6.22;3.42;;;;;;;;;;5016405;28;20114;-74
2022/05/01 13:23:36;;;;;;;3.90;3.28;;;;;;;;;;5022793;28;20075;-74
2022/05/01 13:26:02;;;;;;;3.65;2.75;;;;;;;;;;5038017;28;20102;-73
2022/05/01 13:28:29;;;;;;;6.05;3.67;;;;;;;;;;5021137;28;20045;-74
2022/05/01 13:30:56;;;;;;;5.20;3.50;;;;;;;;;;5021045;28;20057;-74
2022/05/01 13:33:22;;;;;;;4.60;3.20;;;;;;;;;;5017790;28;20041;-73
2022/05/01 13:35:49;;;;;;;5.22;3.72;;;;;;;;;;5023552;28;20060;-74
2022/05/01 13:38:15;;;;;;;6.32;3.88;;;;;;;;;;5021783;28;20076;-74
2022/05/01 13:46:10;;;;;;;5.20;3.33;;;;;;;;;;5023533;28;20065;-74
2022/05/01 13:48:36;;;;;;;5.32;3.47;;;;;;;;;;5018202;28;20044;-74
2022/05/01 13:51:02;;;;;;;5.70;3.45;;;;;;;;;;5006548;28;20033;-74
2022/05/01 13:53:29;;;;;;;8.15;3.45;;;;;;;;;;5003038;28;20053;-74
2022/05/01 13:55:55;;;;;;;5.88;3.47;;;;;;;;;;4999922;28;20099;-74
2022/05/01 13:58:21;;;;;;;4.65;3.42;;;;;;;;;;5017925;28;20044;-74
2022/05/01 14:00:47;;;;;;;7.22;3.28;;;;;;;;;;5012797;28;20040;-74
2022/05/01 14:03:13;;;;;;;4.82;3.17;;;;;;;;;;5023813;28;20421;-74
2022/05/01 14:05:39;;;;;;;4.70;3.00;;;;;;;;;;5021646;28;20060;-74
2022/05/01 14:08:07;;;;;;;8.88;3.88;;;;;;;;;;5003611;28;20052;-74
2022/05/01 14:10:34;;;;;;;4.68;3.80;;;;;;;;;;5007232;28;20037;-74
2022/05/01 14:13:00;;;;;;;5.65;3.80;;;;;;;;;;5020642;28;20045;-73
2022/05/01 14:15:27;;;;;;;4.03;3.33;;;;;;;;;;5022736;28;20453;-74
2022/05/01 14:17:54;;;;;;;5.22;3.67;;;;;;;;;;5020505;28;20121;-73
2022/05/01 14:20:21;;;;;;;5.78;3.70;;;;;;;;;;5022005;28;20045;-74
2022/05/01 14:22:48;;;;;;;6.45;3.58;;;;;;;;;;5018131;28;20478;-74
2022/05/01 14:25:14;;;;;;;5.65;3.50;;;;;;;;;;5023951;28;20057;-73
2022/05/01 14:27:40;;;;;;;5.07;3.20;;;;;;;;;;5023349;28;20103;-74
2022/05/01 14:30:07;;;;;;;5.75;3.10;;;;;;;;;;5022300;28;20076;-74
2022/05/01 14:32:46;;;;;;;4.70;3.28;;;;;;;;;;5020310;28;20040;-74
2022/05/01 14:35:15;;;;;;;4.90;3.38;;;;;;;;;;5022159;28;20048;-74
2022/05/01 14:37:43;;;;;;;7.43;3.50;;;;;;;;;;5022115;28;20051;-74
2022/05/01 14:40:11;;;;;;;4.95;2.95;;;;;;;;;;5022866;28;20045;-74
2022/05/01 14:42:39;;;;;;;4.55;2.65;;;;;;;;;;5020231;28;20034;-74
2022/05/01 14:45:07;;;;;;;3.67;2.70;;;;;;;;;;5022698;28;20041;-74
2022/05/01 14:47:43;;;;;;;3.80;2.65;;;;;;;;;;5022434;28;20179;-74
2022/05/01 14:50:11;;;;;;;4.35;2.70;;;;;;;;;;5022976;28;20500;-73
2022/05/01 14:52:38;;;;;;;4.32;3.15;;;;;;;;;;5022607;28;20042;-74
2022/05/01 14:55:06;;;;;;;4.85;2.88;;;;;;;;;;5019504;28;20100;-75
2022/05/01 14:57:33;;;;;;;5.53;2.97;;;;;;;;;;5021849;28;20041;-73
2022/05/01 15:08:22;;;;;;;4.70;2.97;;;;;;;;;;5014963;28;20052;-74
2022/05/01 15:10:48;;;;;;;4.97;3.20;;;;;;;;;;5017610;28;20505;-73
2022/05/01 15:13:14;;;;;;;4.88;2.80;;;;;;;;;;5023308;28;20055;-73
2022/05/01 15:15:58;;;;;;;3.10;2.65;;;;;;;;;;5020469;28;20608;-73
2022/05/01 15:18:33;;;;;;;4.00;3.20;;;;;;;;;;5024918;28;20044;-74
2022/05/01 15:21:03;;;;;;;5.32;3.08;;;;;;;;;;5022477;28;20056;-74
2022/05/01 15:23:36;;;;;;;4.80;2.92;;;;;;;;;;5022625;28;20362;-74
2022/05/01 15:26:02;;;;;;;5.25;3.25;;;;;;;;;;5025020;28;20505;-73